createdAt,value
2018-02-08T00:00:39.124Z,52.95
2018-02-08T00:03:06.648Z,59.78
2018-02-08T00:05:35.067Z,58.92
2018-02-08T00:08:02.609Z,58.10
2018-02-08T00:10:30.131Z,60.60
2018-02-08T00:12:57.698Z,54.72
2018-02-08T00:15:26.256Z,52.13
2018-02-08T00:17:53.902Z,52.15
2018-02-08T00:20:21.418Z,65.07
2018-02-08T00:22:48.993Z,69.40
2018-02-08T00:25:16.504Z,63.17
2018-02-08T00:27:44.102Z,70.05
2018-02-08T00:30:11.675Z,59.78
2018-02-08T00:32:39.281Z,59.55
2018-02-08T00:35:06.895Z,58.03
2018-02-08T00:37:34.490Z,60.03
2018-02-08T00:40:02.050Z,63.42
2018-02-08T00:42:29.591Z,65.35
2018-02-08T00:44:57.133Z,62.28
2018-02-08T00:47:24.687Z,57.35
2018-02-08T00:49:53.426Z,61.80
2018-02-08T00:52:20.963Z,60.85
2018-02-08T00:54:48.528Z,61.40
2018-02-08T00:57:16.086Z,67.12
2018-02-08T00:59:43.605Z,62.50
2018-02-08T01:02:11.149Z,60.35
2018-02-08T01:04:39.439Z,57.80
2018-02-08T01:07:06.984Z,64.50
2018-02-08T01:09:35.261Z,55.00
2018-02-08T01:12:03.672Z,61.90
2018-02-08T01:14:31.194Z,58.75
2018-02-08T01:16:59.555Z,57.95
2018-02-08T01:19:27.071Z,57.92
2018-02-08T01:21:54.628Z,58.28
2018-02-08T01:24:22.188Z,54.60
2018-02-08T01:26:49.719Z,58.60
2018-02-08T01:29:18.073Z,65.32
2018-02-08T01:31:45.611Z,62.15
2018-02-08T01:34:13.237Z,61.75
2018-02-08T01:36:40.770Z,60.40
2018-02-08T01:39:09.094Z,59.20
2018-02-08T01:41:36.743Z,62.70
2018-02-08T01:44:04.275Z,63.20
2018-02-08T01:46:32.607Z,57.47
2018-02-08T01:49:00.236Z,57.40
2018-02-08T01:51:27.754Z,63.08
2018-02-08T01:53:56.078Z,57.80
2018-02-08T01:56:23.595Z,58.33
2018-02-08T01:58:51.903Z,56.37
2018-02-08T02:01:19.409Z,64.03
2018-02-08T02:03:46.940Z,56.75
2018-02-08T02:06:14.484Z,58.40
2018-02-08T02:08:42.142Z,52.92
2018-02-08T02:11:09.679Z,58.35
2018-02-08T02:13:37.960Z,57.42
2018-02-08T02:16:05.536Z,56.45
2018-02-08T02:18:33.040Z,64.68
2018-02-08T02:21:00.564Z,60.45
2018-02-08T02:23:28.217Z,60.38
2018-02-08T02:25:55.775Z,60.50
2018-02-08T02:28:24.050Z,58.80
2018-02-08T02:30:51.675Z,53.75
2018-02-08T02:33:19.212Z,58.78
2018-02-08T02:35:46.829Z,62.22
2018-02-08T02:38:14.355Z,66.93
2018-02-08T02:40:42.637Z,57.55
2018-02-08T02:43:10.947Z,59.15
2018-02-08T02:45:38.458Z,59.17
2018-02-08T02:48:06.068Z,63.35
2018-02-08T02:50:33.590Z,57.95
2018-02-08T02:53:01.924Z,63.42
2018-02-08T02:55:29.471Z,61.08
2018-02-08T02:57:57.012Z,60.15
2018-02-08T03:00:24.530Z,60.50
2018-02-08T03:02:52.140Z,66.12
2018-02-08T03:05:19.763Z,60.55
2018-02-08T03:07:48.177Z,59.40
2018-02-08T03:10:15.736Z,59.58
2018-02-08T03:12:56.921Z,65.68
2018-02-08T03:15:25.223Z,56.42
2018-02-08T03:17:52.931Z,64.30
2018-02-08T03:20:21.207Z,58.80
2018-02-08T03:22:50.331Z,55.50
2018-02-08T03:25:17.862Z,63.67
2018-02-08T03:27:46.164Z,62.83
2018-02-08T03:30:13.966Z,63.75
2018-02-08T03:32:41.524Z,57.40
2018-02-08T03:35:09.047Z,56.42
2018-02-08T03:37:36.589Z,57.13
2018-02-08T03:40:04.986Z,63.05
2018-02-08T03:42:32.510Z,61.10
2018-02-08T03:45:00.818Z,60.40
2018-02-08T03:47:28.351Z,53.90
2018-02-08T03:49:56.649Z,55.78
2018-02-08T03:52:24.182Z,61.58
2018-02-08T03:54:52.454Z,56.70
2018-02-08T03:57:21.740Z,62.78
2018-02-08T03:59:49.265Z,68.30
2018-02-08T04:02:16.814Z,60.80
2018-02-08T04:04:44.345Z,54.40
2018-02-08T04:07:12.645Z,55.80
2018-02-08T04:09:40.306Z,57.10
2018-02-08T04:12:07.918Z,51.28
2018-02-08T04:14:35.514Z,61.05
2018-02-08T04:17:03.071Z,53.78
2018-02-08T04:19:30.603Z,58.33
2018-02-08T04:21:58.143Z,56.20
2018-02-08T04:24:25.779Z,59.20
2018-02-08T04:26:53.316Z,61.80
2018-02-08T04:29:20.833Z,59.40
2018-02-08T04:31:48.415Z,61.10
2018-02-08T04:34:16.693Z,58.22
2018-02-08T04:36:45.082Z,60.25
2018-02-08T04:39:24.698Z,53.87
2018-02-08T04:42:04.127Z,57.58
2018-02-08T04:44:43.513Z,53.45
2018-02-08T04:47:23.112Z,49.83
2018-02-08T04:49:50.713Z,58.25
2018-02-08T04:52:18.383Z,53.22
2018-02-08T04:54:46.093Z,83.30
2018-02-08T04:57:14.422Z,58.40
2018-02-08T04:59:41.949Z,51.85
2018-02-08T05:02:13.922Z,57.05
2018-02-08T05:04:41.900Z,57.70
2018-02-08T05:07:09.447Z,57.22
2018-02-08T05:09:37.751Z,58.05
2018-02-08T05:12:05.327Z,57.60
2018-02-08T05:14:32.840Z,53.75
2018-02-08T05:17:01.162Z,57.80
2018-02-08T05:19:28.725Z,64.37
2018-02-08T05:21:56.310Z,65.00
2018-02-08T05:24:23.832Z,60.70
2018-02-08T05:26:51.386Z,60.33
2018-02-08T05:29:18.918Z,59.75
2018-02-08T05:31:46.496Z,60.55
2018-02-08T05:34:14.071Z,57.88
2018-02-08T05:36:41.707Z,58.80
2018-02-08T05:39:09.221Z,59.50
2018-02-08T05:41:36.836Z,56.67
2018-02-08T05:44:04.382Z,57.10
2018-02-08T05:46:31.924Z,60.40
2018-02-08T05:49:00.249Z,63.47
2018-02-08T05:51:27.796Z,65.82
2018-02-08T05:53:55.356Z,64.18
2018-02-08T05:56:23.004Z,71.62
2018-02-08T05:58:50.527Z,65.90
2018-02-08T06:01:18.079Z,63.90
2018-02-08T06:03:45.594Z,65.53
2018-02-08T06:06:13.130Z,67.72
2018-02-08T06:08:40.648Z,65.57
2018-02-08T06:11:08.213Z,65.57
2018-02-08T06:13:35.817Z,70.95
2018-02-08T06:16:03.419Z,58.72
2018-02-08T06:18:30.934Z,68.62
2018-02-08T06:20:58.508Z,68.43
2018-02-08T06:23:26.046Z,73.45
2018-02-08T06:25:53.635Z,76.45
2018-02-08T06:28:21.249Z,78.40
2018-02-08T06:30:49.583Z,62.70
2018-02-08T06:33:17.102Z,67.18
2018-02-08T06:35:44.783Z,57.30
2018-02-08T06:38:12.625Z,67.85
2018-02-08T06:40:40.283Z,62.03
2018-02-08T06:43:08.587Z,70.03
2018-02-08T06:45:36.248Z,64.32
2018-02-08T06:48:03.757Z,60.70
2018-02-08T06:50:31.343Z,64.40
2018-02-08T06:52:59.647Z,64.05
2018-02-08T06:55:27.191Z,69.80
2018-02-08T06:57:54.820Z,76.57
2018-02-08T07:00:22.546Z,64.55
2018-02-08T07:02:50.201Z,64.32
2018-02-08T07:05:17.751Z,68.00
2018-02-08T07:07:45.303Z,63.58
2018-02-08T07:10:12.864Z,69.95
2018-02-08T07:12:40.404Z,57.28
2018-02-08T07:15:08.786Z,61.15
2018-02-08T07:17:36.325Z,68.15
2018-02-08T07:20:04.638Z,62.33
2018-02-08T07:22:32.163Z,62.65
2018-02-08T07:25:00.497Z,59.75
2018-02-08T07:27:28.084Z,58.28
2018-02-08T07:29:55.672Z,51.97
2018-02-08T07:32:23.995Z,55.30
2018-02-08T07:34:51.557Z,57.28
2018-02-08T07:37:19.095Z,53.90
2018-02-08T07:39:46.650Z,54.10
2018-02-08T07:42:14.186Z,54.70
2018-02-08T07:44:42.484Z,62.85
2018-02-08T07:47:10.004Z,62.20
2018-02-08T07:49:38.309Z,55.38
2018-02-08T07:52:05.829Z,64.75
2018-02-08T07:54:33.388Z,53.40
2018-02-08T07:57:00.896Z,50.85
2018-02-08T07:59:28.435Z,54.35
2018-02-08T08:01:56.037Z,55.10
2018-02-08T08:04:24.975Z,44.35
2018-02-08T08:06:53.290Z,44.10
2018-02-08T08:09:20.872Z,49.28
2018-02-08T08:11:48.495Z,47.55
2018-02-08T08:14:16.037Z,55.85
2018-02-08T08:16:44.321Z,50.15
2018-02-08T08:19:12.621Z,46.95
2018-02-08T08:21:40.144Z,48.20
2018-02-08T08:24:08.450Z,50.35
2018-02-08T08:26:36.152Z,48.17
2018-02-08T08:29:08.343Z,48.05
2018-02-08T08:31:36.677Z,50.50
2018-02-08T08:34:04.215Z,49.55
2018-02-08T08:36:31.763Z,45.28
2018-02-08T08:38:59.306Z,45.10
2018-02-08T08:41:27.586Z,50.50
2018-02-08T08:43:55.154Z,46.08
2018-02-08T08:46:22.676Z,57.05
2018-02-08T08:48:50.207Z,44.28
2018-02-08T08:51:17.834Z,52.33
2018-02-08T08:53:46.111Z,47.47
2018-02-08T08:56:13.785Z,47.83
2018-02-08T08:58:41.353Z,53.13
2018-02-08T09:01:08.906Z,58.53
2018-02-08T09:03:36.435Z,51.03
2018-02-08T09:06:04.872Z,49.85
2018-02-08T09:08:32.382Z,51.80
2018-02-08T09:10:59.998Z,57.55
2018-02-08T09:13:27.508Z,51.90
2018-02-08T09:15:55.127Z,44.55
2018-02-08T09:18:22.647Z,48.78
2018-02-08T09:20:50.180Z,50.00
2018-02-08T09:23:17.686Z,57.30
2018-02-08T09:25:46.008Z,48.45
2018-02-08T09:28:13.577Z,47.58
2018-02-08T09:30:41.115Z,57.78
2018-02-08T09:33:09.426Z,57.25
2018-02-08T09:35:37.182Z,52.75
2018-02-08T09:38:15.619Z,56.37
2018-02-08T09:40:43.643Z,55.97
2018-02-08T09:43:12.299Z,54.45
2018-02-08T09:45:39.944Z,52.92
2018-02-08T09:48:07.443Z,53.60
2018-02-08T09:50:35.764Z,55.88
2018-02-08T09:53:03.758Z,53.75
2018-02-08T09:55:31.403Z,52.45
2018-02-08T09:57:58.969Z,56.03
2018-02-08T10:00:29.465Z,61.80
2018-02-08T10:02:57.027Z,57.88
2018-02-08T10:05:24.598Z,69.03
2018-02-08T10:07:52.127Z,57.03
2018-02-08T10:10:19.712Z,58.33
2018-02-08T10:12:47.266Z,55.10
2018-02-08T10:15:15.368Z,54.65
2018-02-08T10:17:43.002Z,59.83
2018-02-08T10:20:10.545Z,59.33
2018-02-08T10:22:38.069Z,56.70
2018-02-08T10:25:05.621Z,56.85
2018-02-08T10:27:33.146Z,58.78
2018-02-08T10:30:00.792Z,54.15
2018-02-08T10:32:28.388Z,61.95
2018-02-08T10:34:55.935Z,52.65
2018-02-08T10:37:23.651Z,57.50
2018-02-08T10:39:51.206Z,59.78
2018-02-08T10:42:19.526Z,54.97
2018-02-08T10:44:47.072Z,56.05
2018-02-08T10:47:14.597Z,60.70
2018-02-08T10:49:42.174Z,63.92
2018-02-08T10:52:09.734Z,59.95
2018-02-08T10:54:37.286Z,61.28
2018-02-08T10:57:04.915Z,59.38
2018-02-08T10:59:33.235Z,60.50
2018-02-08T11:02:00.998Z,60.53
2018-02-08T11:04:28.603Z,57.38
2018-02-08T11:06:56.118Z,60.08
2018-02-08T11:09:23.671Z,55.78
2018-02-08T11:11:51.193Z,59.83
2018-02-08T11:14:18.747Z,60.78
2018-02-08T11:16:47.786Z,59.30
2018-02-08T11:19:15.483Z,64.53
2018-02-08T11:21:43.078Z,72.93
2018-02-08T11:24:11.611Z,61.80
2018-02-08T11:26:39.271Z,68.87
2018-02-08T11:29:06.851Z,64.15
2018-02-08T11:31:34.434Z,67.97
2018-02-08T11:34:01.962Z,68.95
2018-02-08T11:36:29.512Z,66.45
2018-02-08T11:38:57.190Z,64.03
2018-02-08T11:41:24.743Z,75.22
2018-02-08T11:43:52.299Z,65.35
2018-02-08T11:46:19.826Z,70.32
2018-02-08T11:48:47.470Z,77.30
2018-02-08T11:51:15.780Z,67.32
2018-02-08T11:53:43.421Z,75.57
2018-02-08T11:56:11.881Z,75.62
2018-02-08T11:58:39.480Z,63.78
2018-02-08T12:01:07.011Z,78.57
2018-02-08T12:03:35.332Z,66.65
2018-02-08T12:06:02.846Z,85.30
2018-02-08T12:08:31.156Z,73.00
2018-02-08T12:10:58.691Z,73.20
2018-02-08T12:13:27.051Z,77.85
2018-02-08T12:15:55.398Z,78.55
2018-02-08T12:18:22.930Z,77.15
2018-02-08T12:20:50.489Z,71.22
2018-02-08T12:23:18.031Z,77.87
2018-02-08T12:25:45.605Z,79.03
2018-02-08T12:28:13.270Z,80.18
2018-02-08T12:30:40.843Z,80.07
2018-02-08T12:33:08.390Z,76.07
2018-02-08T12:35:35.943Z,71.53
2018-02-08T12:38:03.464Z,75.35
2018-02-08T12:40:31.163Z,74.05
2018-02-08T12:43:00.393Z,78.07
2018-02-08T12:45:27.938Z,75.87
2018-02-08T12:47:55.540Z,71.87
2018-02-08T12:50:23.067Z,73.18
2018-02-08T12:52:50.639Z,69.90
2018-02-08T12:55:18.182Z,73.00
2018-02-08T12:57:45.822Z,63.15
2018-02-08T13:00:14.290Z,60.75
2018-02-08T13:02:42.022Z,64.18
2018-02-08T13:05:09.531Z,69.85
2018-02-08T13:07:37.907Z,64.00
2018-02-08T13:10:05.456Z,70.72
2018-02-08T13:12:32.998Z,60.38
2018-02-08T13:15:01.294Z,66.45
2018-02-08T13:17:28.827Z,62.65
2018-02-08T13:19:57.114Z,63.20
2018-02-08T13:22:25.449Z,65.30
2018-02-08T13:24:52.980Z,65.37
2018-02-08T13:27:20.558Z,64.82
2018-02-08T13:29:48.072Z,57.35
2018-02-08T13:32:16.336Z,60.63
2018-02-08T13:34:44.683Z,62.85
2018-02-08T13:37:13.273Z,65.45
2018-02-08T13:39:45.132Z,66.62
2018-02-08T13:42:12.679Z,66.80
2018-02-08T13:44:40.208Z,62.78
2018-02-08T13:47:23.506Z,60.60
2018-02-08T13:49:54.558Z,64.22
2018-02-08T13:52:42.809Z,63.00
2018-02-08T13:55:15.994Z,57.53
2018-02-08T13:57:54.374Z,61.83
2018-02-08T14:00:40.491Z,80.62
2018-02-08T14:03:08.803Z,61.30
2018-02-08T14:05:38.846Z,61.22
2018-02-08T14:08:06.438Z,65.85
2018-02-08T14:10:34.710Z,62.95
2018-02-08T14:13:03.185Z,61.17
2018-02-08T14:15:30.707Z,57.88
2018-02-08T14:17:58.266Z,59.42
2018-02-08T14:20:25.861Z,64.37
2018-02-08T14:22:53.519Z,62.28
2018-02-08T14:25:21.068Z,63.65
2018-02-08T14:27:48.641Z,59.65
2018-02-08T14:30:16.253Z,68.95
2018-02-08T14:32:43.801Z,61.97
2018-02-08T14:35:11.330Z,61.78
2018-02-08T14:37:38.878Z,67.47
2018-02-08T14:40:06.494Z,69.85
2018-02-08T14:42:34.113Z,67.87
2018-02-08T14:45:02.442Z,65.37
2018-02-08T14:47:31.087Z,65.15
2018-02-08T14:49:59.546Z,68.82
2018-02-08T14:52:27.156Z,71.40
2018-02-08T14:54:54.699Z,65.32
2018-02-08T14:57:22.383Z,68.57
2018-02-08T14:59:49.948Z,70.32
2018-02-08T15:02:17.619Z,75.07
2018-02-08T15:04:45.172Z,77.43
2018-02-08T15:07:12.708Z,66.12
2018-02-08T15:09:40.223Z,73.70
2018-02-08T15:12:07.767Z,74.75
2018-02-08T15:14:35.286Z,60.92
2018-02-08T15:17:02.830Z,68.05
2018-02-08T15:19:30.492Z,70.80
2018-02-08T15:21:58.052Z,73.75
2018-02-08T15:24:26.458Z,72.75
2018-02-08T15:26:54.125Z,70.78
2018-02-08T15:29:21.670Z,70.72
2018-02-08T15:31:49.242Z,65.47
2018-02-08T15:34:16.767Z,64.80
2018-02-08T15:36:44.354Z,79.87
2018-02-08T15:39:11.873Z,70.28
2018-02-08T15:41:40.297Z,70.95
2018-02-08T15:44:07.810Z,69.10
2018-02-08T15:46:36.124Z,71.37
2018-02-08T15:49:03.830Z,72.30
2018-02-08T15:51:31.433Z,69.05
2018-02-08T15:53:58.955Z,68.22
2018-02-08T15:56:26.516Z,72.18
2018-02-08T15:58:54.048Z,72.50
2018-02-08T16:01:21.769Z,74.32
2018-02-08T16:03:50.203Z,76.50
2018-02-08T16:06:17.727Z,73.85
2018-02-08T16:08:45.277Z,69.20
2018-02-08T16:11:12.806Z,69.45
2018-02-08T16:13:40.336Z,77.12
2018-02-08T16:16:07.883Z,81.80
2018-02-08T16:18:35.626Z,79.32
2018-02-08T16:21:03.176Z,72.90
2018-02-08T16:23:30.864Z,77.82
2018-02-08T16:25:58.361Z,77.12
2018-02-08T16:28:26.726Z,77.65
2018-02-08T16:30:54.230Z,69.70
2018-02-08T16:33:21.803Z,73.70
2018-02-08T16:35:49.346Z,75.45
2018-02-08T16:38:16.920Z,75.97
2018-02-08T16:40:44.427Z,70.75
2018-02-08T16:43:11.967Z,68.00
2018-02-08T16:45:39.469Z,77.68
2018-02-08T16:48:07.772Z,71.10
2018-02-08T16:50:35.279Z,71.57
2018-02-08T16:53:02.835Z,73.93
2018-02-08T16:55:30.369Z,74.18
2018-02-08T16:57:57.921Z,71.50
2018-02-08T17:00:25.438Z,73.72
2018-02-08T17:02:53.770Z,74.05
2018-02-08T17:05:21.278Z,76.80
2018-02-08T17:07:49.694Z,70.43
2018-02-08T17:10:18.351Z,70.35
2018-02-08T17:12:45.951Z,76.90
2018-02-08T17:15:13.477Z,71.97
2018-02-08T17:17:41.000Z,69.87
2018-02-08T17:20:09.400Z,71.12
2018-02-08T17:22:37.675Z,66.65
2018-02-08T17:25:05.995Z,75.28
2018-02-08T17:27:33.505Z,70.65
2018-02-08T17:30:01.885Z,67.00
2018-02-08T17:32:29.570Z,61.60
2018-02-08T17:34:57.117Z,66.95
2018-02-08T17:37:25.412Z,77.15
2018-02-08T17:39:53.299Z,64.53
2018-02-08T17:42:20.915Z,66.40
2018-02-08T17:44:49.237Z,73.32
2018-02-08T17:47:16.750Z,60.78
2018-02-08T17:49:45.258Z,65.68
2018-02-08T17:52:12.781Z,58.58
2018-02-08T17:54:41.143Z,71.03
2018-02-08T17:57:08.751Z,58.08
2018-02-08T17:59:36.408Z,66.22
2018-02-08T18:02:03.927Z,63.35
2018-02-08T18:04:31.471Z,63.78
2018-02-08T18:06:59.104Z,61.17
2018-02-08T18:09:26.859Z,64.78
2018-02-08T18:11:54.394Z,54.30
2018-02-08T18:14:22.779Z,61.78
2018-02-08T18:16:50.360Z,61.67
2018-02-08T18:19:17.991Z,58.63
2018-02-08T18:21:46.321Z,60.65
2018-02-08T18:24:13.898Z,61.30
2018-02-08T18:26:42.202Z,56.15
2018-02-08T18:29:10.514Z,64.28
2018-02-08T18:31:38.040Z,70.35
2018-02-08T18:34:06.396Z,73.28
2018-02-08T18:36:33.954Z,62.25
2018-02-08T18:39:02.500Z,71.50
2018-02-08T18:41:30.186Z,69.05
2018-02-08T18:43:57.814Z,67.30
2018-02-08T18:46:25.384Z,75.45
2018-02-08T18:48:52.929Z,85.68
2018-02-08T18:51:20.467Z,77.07
2018-02-08T18:53:48.806Z,78.22
2018-02-08T18:56:16.330Z,92.68
2018-02-08T18:58:43.997Z,80.95
2018-02-08T19:01:11.579Z,76.70
2018-02-08T19:03:39.184Z,81.45
2018-02-08T19:06:07.571Z,99.80
2018-02-08T19:08:35.152Z,82.78
2018-02-08T19:11:03.120Z,79.72
2018-02-08T19:13:30.679Z,86.45
2018-02-08T19:15:58.211Z,86.47
2018-02-08T19:18:26.557Z,80.03
2018-02-08T19:20:54.240Z,88.93
2018-02-08T19:23:22.935Z,88.70
2018-02-08T19:25:51.212Z,97.70
2018-02-08T19:28:19.549Z,92.82
2018-02-08T19:30:48.985Z,83.50
2018-02-08T19:33:17.391Z,88.00
2018-02-08T19:35:44.907Z,91.30
2018-02-08T19:38:12.456Z,81.12
2018-02-08T19:40:39.977Z,91.57
2018-02-08T19:43:07.599Z,84.82
2018-02-08T19:45:35.171Z,80.87
2018-02-08T19:48:03.099Z,79.80
2018-02-08T19:50:30.631Z,79.70
2018-02-08T19:52:58.290Z,90.07
2018-02-08T19:55:25.834Z,88.53
2018-02-08T19:57:53.743Z,87.97
2018-02-08T20:00:21.375Z,84.03
2018-02-08T20:02:49.005Z,93.32
2018-02-08T20:05:17.491Z,93.57
2018-02-08T20:07:45.821Z,91.43
2018-02-08T20:10:13.438Z,88.25
2018-02-08T20:12:40.996Z,90.35
2018-02-08T20:15:08.658Z,77.85
2018-02-08T20:17:36.979Z,90.55
2018-02-08T20:20:04.572Z,95.85
2018-02-08T20:22:33.104Z,95.50
2018-02-08T20:25:00.894Z,94.00
2018-02-08T20:27:28.432Z,85.70
2018-02-08T20:29:56.079Z,95.12
2018-02-08T20:32:23.645Z,90.32
2018-02-08T20:34:51.212Z,95.68
2018-02-08T20:37:18.916Z,94.13
2018-02-08T20:39:47.256Z,91.18
2018-02-08T20:42:20.366Z,87.93
2018-02-08T20:44:47.924Z,93.12
2018-02-08T20:47:15.519Z,108.45
2018-02-08T20:49:49.404Z,94.45
2018-02-08T20:52:17.009Z,105.22
2018-02-08T20:54:44.553Z,109.63
2018-02-08T20:57:12.883Z,113.43
2018-02-08T20:59:40.408Z,102.05
2018-02-08T21:02:07.972Z,105.47
2018-02-08T21:04:35.522Z,98.85
2018-02-08T21:07:03.095Z,100.43
2018-02-08T21:09:30.644Z,106.50
2018-02-08T21:11:58.261Z,107.70
2018-02-08T21:14:26.052Z,96.80
2018-02-08T21:16:53.685Z,100.30
2018-02-08T21:19:21.241Z,102.40
2018-02-08T21:21:48.803Z,96.53
2018-02-08T21:24:18.004Z,101.68
2018-02-08T21:26:45.562Z,107.25
2018-02-08T21:29:13.112Z,109.35
2018-02-08T21:31:40.730Z,110.90
2018-02-08T21:34:08.263Z,110.10
2018-02-08T21:36:35.913Z,101.00
2018-02-08T21:39:03.431Z,102.72
2018-02-08T21:41:31.149Z,99.72
2018-02-08T21:43:59.456Z,104.95
2018-02-08T21:46:27.055Z,101.32
2018-02-08T21:48:54.719Z,108.90
2018-02-08T21:51:22.464Z,106.43
2018-02-08T21:53:50.002Z,112.00
2018-02-08T21:56:17.530Z,107.80
2018-02-08T21:58:45.239Z,107.97
2018-02-08T22:01:12.777Z,104.30
2018-02-08T22:03:40.505Z,109.53
2018-02-08T22:06:08.985Z,115.25
2018-02-08T22:08:37.657Z,119.80
2018-02-08T22:11:05.968Z,108.68
2018-02-08T22:13:33.526Z,109.35
2018-02-08T22:16:01.403Z,120.60
2018-02-08T22:18:28.943Z,108.28
2018-02-08T22:20:57.271Z,116.85
2018-02-08T22:23:24.929Z,118.00
2018-02-08T22:25:52.444Z,114.32
2018-02-08T22:28:20.004Z,121.70
2018-02-08T22:30:47.529Z,105.20
2018-02-08T22:33:15.099Z,115.03
2018-02-08T22:35:42.785Z,111.75
2018-02-08T22:38:10.677Z,117.68
2018-02-08T22:40:38.206Z,128.05
2018-02-08T22:43:06.527Z,123.28
2018-02-08T22:45:34.055Z,123.15
2018-02-08T22:48:01.641Z,127.80
2018-02-08T22:50:29.200Z,120.15
2018-02-08T22:52:56.792Z,112.95
2018-02-08T22:55:25.244Z,118.90
2018-02-08T22:57:52.989Z,124.82
2018-02-08T23:00:20.568Z,119.97
2018-02-08T23:02:48.200Z,114.93
2018-02-08T23:05:15.832Z,121.47
2018-02-08T23:07:43.424Z,127.47
2018-02-08T23:10:11.112Z,123.97
2018-02-08T23:12:38.727Z,118.35
2018-02-08T23:15:06.329Z,132.40
2018-02-08T23:17:33.870Z,122.22
2018-02-08T23:20:01.549Z,131.00
2018-02-08T23:22:29.095Z,129.43
2018-02-08T23:24:56.742Z,123.05
2018-02-08T23:27:24.312Z,138.45
2018-02-08T23:29:52.806Z,131.45
2018-02-08T23:32:20.332Z,119.13
2018-02-08T23:34:47.919Z,127.47
2018-02-08T23:37:15.607Z,135.90
2018-02-08T23:39:43.231Z,127.62
2018-02-08T23:42:10.762Z,133.95
2018-02-08T23:44:39.061Z,125.62
2018-02-08T23:47:06.651Z,126.22
2018-02-08T23:49:34.191Z,135.93
2018-02-08T23:52:01.731Z,134.48
2018-02-08T23:54:30.346Z,138.68
2018-02-08T23:56:57.868Z,123.70
2018-02-08T23:59:26.249Z,130.00
